createdAt,value
2022-08-22T00:02:54.996Z,101035.66
2022-08-22T00:03:08.328Z,101029.75
2022-08-22T00:04:37.315Z,101067.63
2022-08-22T00:10:25.232Z,101058.06
2022-08-22T00:16:09.634Z,101068.84
2022-08-22T00:21:43.755Z,101042.19
2022-08-22T00:27:15.754Z,101042.72
2022-08-22T00:33:05.524Z,101023.50
2022-08-22T00:38:34.065Z,101078.69
2022-08-22T00:44:23.775Z,101079.72
2022-08-22T00:49:59.185Z,101078.81
2022-08-22T00:55:37.654Z,101038.84
2022-08-22T01:01:07.406Z,101069.69
2022-08-22T01:06:52.154Z,101080.78
2022-08-22T01:12:53.446Z,101055.78
2022-08-22T01:18:58.367Z,101063.81
2022-08-22T01:25:01.044Z,101082.19
2022-08-22T01:30:33.824Z,101085.00
2022-08-22T01:36:15.038Z,101087.81
2022-08-22T01:42:05.684Z,101085.19
2022-08-22T01:47:37.629Z,101085.13
2022-08-22T01:53:06.494Z,101084.41
2022-08-22T01:58:34.844Z,101065.44
2022-08-22T02:04:22.525Z,101077.31
2022-08-22T02:09:53.231Z,101077.03
2022-08-22T02:15:18.883Z,101081.38
2022-08-22T02:21:03.338Z,101077.53
2022-08-22T02:27:07.586Z,101077.03
2022-08-22T02:32:42.234Z,101090.44
2022-08-22T02:38:29.784Z,101055.38
2022-08-22T02:44:14.994Z,101097.88
2022-08-22T02:50:14.084Z,101094.06
2022-08-22T02:55:48.373Z,101096.81
2022-08-22T03:01:24.704Z,101093.03
2022-08-22T03:07:34.248Z,101060.41
2022-08-22T03:13:07.324Z,101117.44
2022-08-22T03:18:58.664Z,101122.28
2022-08-22T03:24:23.678Z,101119.44
2022-08-22T03:29:51.884Z,101122.88
2022-08-22T03:35:33.072Z,101122.47
2022-08-22T03:41:10.551Z,101126.09
2022-08-22T03:47:08.574Z,101106.25
2022-08-22T03:53:15.288Z,101129.53
2022-08-22T03:58:59.682Z,101133.63
2022-08-22T04:04:55.824Z,101134.44
2022-08-22T04:10:36.185Z,101136.53
2022-08-22T04:16:16.506Z,101134.72
2022-08-22T04:21:58.106Z,101138.06
2022-08-22T04:27:50.484Z,101135.53
2022-08-22T04:33:56.858Z,101146.13
2022-08-22T04:39:26.624Z,101140.38
2022-08-22T04:44:54.344Z,101143.59
2022-08-22T04:50:51.794Z,101108.16
2022-08-22T04:56:39.484Z,101130.59
2022-08-22T05:02:07.457Z,101136.03
2022-08-22T05:07:40.484Z,101137.47
2022-08-22T05:13:27.595Z,101143.31
2022-08-22T05:18:58.704Z,101139.53
2022-08-22T05:24:28.307Z,101132.63
2022-08-22T05:29:55.660Z,101127.91
2022-08-22T05:35:20.454Z,101133.06
2022-08-22T05:40:45.275Z,101150.06
2022-08-22T05:46:13.584Z,101142.03
2022-08-22T05:52:01.364Z,101137.31
2022-08-22T05:57:38.055Z,101139.09
2022-08-22T06:03:22.276Z,101133.84
2022-08-22T06:09:05.834Z,101127.28
2022-08-22T06:14:42.738Z,101128.03
2022-08-22T06:20:09.522Z,101121.59
2022-08-22T06:25:35.114Z,101131.78
2022-08-22T06:30:59.235Z,101123.19
2022-08-22T06:36:33.005Z,101126.53
2022-08-22T06:42:03.407Z,101122.09
2022-08-22T06:47:40.154Z,101121.16
2022-08-22T06:53:09.797Z,101119.19
2022-08-22T06:58:45.174Z,101115.72
2022-08-22T07:04:09.582Z,101110.38
2022-08-22T07:09:35.765Z,101061.59
2022-08-22T07:15:11.706Z,101084.72
2022-08-22T07:20:46.723Z,101101.66
2022-08-22T07:26:54.036Z,101111.25
2022-08-22T07:32:38.655Z,101112.91
2022-08-22T07:38:00.876Z,101112.66
2022-08-22T07:43:34.207Z,101082.94
2022-08-22T07:49:14.062Z,101091.09
2022-08-22T07:54:43.605Z,101060.16
2022-08-22T08:00:13.516Z,101100.88
2022-08-22T08:05:41.705Z,101094.78
2022-08-22T08:11:05.686Z,101091.88
2022-08-22T08:16:34.914Z,101102.03
2022-08-22T08:21:58.585Z,101106.69
2022-08-22T08:27:45.611Z,101105.09
2022-08-22T08:33:24.659Z,101094.88
2022-08-22T08:38:56.766Z,101102.59
2022-08-22T08:44:39.094Z,101083.56
2022-08-22T08:50:40.552Z,101102.28
2022-08-22T08:56:47.154Z,101105.88
2022-08-22T09:02:38.170Z,101110.13
2022-08-22T09:08:25.263Z,101102.56
2022-08-22T09:13:58.883Z,101102.97
2022-08-22T09:19:39.265Z,101097.47
2022-08-22T09:25:19.596Z,101097.50
2022-08-22T09:31:16.852Z,101090.44
2022-08-22T09:37:14.195Z,101093.81
2022-08-22T09:43:05.955Z,101096.63
2022-08-22T09:48:43.654Z,101097.44
2022-08-22T09:54:11.222Z,101068.44
2022-08-22T09:59:58.056Z,101092.34
2022-08-22T10:05:44.266Z,101100.22
2022-08-22T10:11:28.669Z,101097.91
2022-08-22T10:17:26.183Z,101100.38
2022-08-22T10:22:57.374Z,101095.66
2022-08-22T10:28:57.308Z,101098.81
2022-08-22T10:34:36.996Z,101095.66
2022-08-22T10:40:16.842Z,101100.38
2022-08-22T10:45:44.706Z,101098.75
2022-08-22T10:51:31.002Z,101099.47
2022-08-22T10:57:06.790Z,101099.47
2022-08-22T11:02:55.482Z,101101.47
2022-08-22T11:08:40.021Z,101097.84
2022-08-22T11:14:08.525Z,101088.34
2022-08-22T11:20:10.354Z,101098.00
2022-08-22T11:25:53.709Z,101087.06
2022-08-22T11:31:25.827Z,101041.69
2022-08-22T11:37:20.446Z,101073.63
2022-08-22T11:42:57.547Z,101080.75
2022-08-22T11:48:53.886Z,101048.03
2022-08-22T11:54:21.268Z,101082.88
2022-08-22T12:00:27.597Z,101083.63
2022-08-22T12:06:37.216Z,101084.75
2022-08-22T12:12:26.290Z,101068.53
2022-08-22T12:18:07.260Z,101069.34
2022-08-22T12:23:49.762Z,101068.50
2022-08-22T12:29:33.384Z,101077.25
2022-08-22T12:35:19.784Z,101072.44
2022-08-22T12:41:13.600Z,101062.81
2022-08-22T12:47:17.337Z,101072.25
2022-08-22T12:52:49.118Z,101071.44
2022-08-22T12:58:30.502Z,101067.09
2022-08-22T13:04:03.609Z,101073.81
2022-08-22T13:09:36.227Z,101067.84
2022-08-22T13:15:31.799Z,101070.56
2022-08-22T13:20:58.876Z,101062.56
2022-08-22T13:26:33.989Z,101037.84
2022-08-22T13:32:02.332Z,101028.28
2022-08-22T13:37:50.129Z,101041.41
2022-08-22T13:43:23.454Z,101052.16
2022-08-22T13:48:50.452Z,101054.94
2022-08-22T13:54:13.006Z,101057.69
2022-08-22T14:00:11.986Z,101052.97
2022-08-22T14:06:32.615Z,101027.94
2022-08-22T14:11:44.774Z,101053.84
2022-08-22T14:17:14.122Z,101045.13
2022-08-22T14:22:45.892Z,101047.94
2022-08-22T14:28:30.365Z,101020.06
2022-08-22T14:33:53.854Z,101037.13
2022-08-22T14:39:34.791Z,101039.53
2022-08-22T14:45:11.466Z,101039.84
2022-08-22T14:50:52.919Z,101032.63
2022-08-22T14:56:24.497Z,101041.63
2022-08-22T15:02:03.410Z,101039.13
2022-08-22T15:07:30.954Z,101024.97
2022-08-22T15:12:56.755Z,101031.28
2022-08-22T15:18:34.256Z,101039.47
2022-08-22T15:24:02.094Z,101041.28
2022-08-22T15:29:29.035Z,101028.09
2022-08-22T15:34:52.917Z,101027.16
2022-08-22T15:40:40.505Z,101023.06
2022-08-22T15:46:21.273Z,101022.50
2022-08-22T15:52:01.598Z,101016.25
2022-08-22T15:57:39.490Z,101030.31
2022-08-22T16:03:10.483Z,101028.38
2022-08-22T16:08:45.439Z,101022.94
2022-08-22T16:14:21.348Z,101024.72
2022-08-22T16:19:43.485Z,101014.03
2022-08-22T16:25:10.444Z,101014.88
2022-08-22T16:30:37.422Z,101039.72
2022-08-22T16:36:21.424Z,101034.28
2022-08-22T16:41:44.731Z,101039.84
2022-08-22T16:47:42.253Z,101039.06
2022-08-22T16:53:12.263Z,101040.28
2022-08-22T16:59:14.164Z,101025.84
2022-08-22T17:04:54.476Z,101041.22
2022-08-22T17:10:37.003Z,101045.31
2022-08-22T17:16:23.442Z,101040.16
2022-08-22T17:21:56.664Z,101051.16
2022-08-22T17:27:33.273Z,101030.22
2022-08-22T17:33:17.526Z,101054.69
2022-08-22T17:39:14.101Z,101056.47
2022-08-22T17:44:46.934Z,101060.53
2022-08-22T17:50:39.985Z,101058.69
2022-08-22T17:56:18.755Z,101055.97
2022-08-22T18:01:43.760Z,101062.31
2022-08-22T18:07:31.232Z,101054.78
2022-08-22T18:13:14.985Z,101055.97
2022-08-22T18:18:46.475Z,101047.91
2022-08-22T18:24:14.890Z,101059.59
2022-08-22T18:30:00.491Z,101070.28
2022-08-22T18:35:46.735Z,101059.31
2022-08-22T18:41:22.501Z,101050.03
2022-08-22T18:46:52.104Z,101059.53
2022-08-22T18:52:37.734Z,101046.16
2022-08-22T18:58:09.965Z,101061.78
2022-08-22T19:03:46.053Z,101056.53
2022-08-22T19:09:32.612Z,101052.91
2022-08-22T19:15:11.500Z,101006.53
2022-08-22T19:20:56.155Z,101010.75
2022-08-22T19:26:36.096Z,100990.34
2022-08-22T19:32:02.545Z,101056.84
2022-08-22T19:37:33.314Z,101053.75
2022-08-22T19:42:56.807Z,100992.34
2022-08-22T19:48:27.807Z,101064.56
2022-08-22T19:54:02.156Z,101058.06
2022-08-22T19:59:38.415Z,101009.16
2022-08-22T20:05:15.595Z,101065.03
2022-08-22T20:11:01.625Z,101064.94
2022-08-22T20:17:01.696Z,101074.78
2022-08-22T20:22:29.866Z,101072.50
2022-08-22T20:28:03.178Z,101074.44
2022-08-22T20:33:30.076Z,101088.97
2022-08-22T20:38:56.237Z,101091.81
2022-08-22T20:44:24.853Z,101085.75
2022-08-22T20:49:53.645Z,101098.78
2022-08-22T20:55:19.746Z,101100.84
2022-08-22T21:00:48.402Z,101105.66
2022-08-22T21:06:16.549Z,101108.66
2022-08-22T21:11:41.697Z,101081.41
2022-08-22T21:17:28.127Z,101101.09
2022-08-22T21:22:53.236Z,101078.56
2022-08-22T21:28:34.985Z,101120.50
2022-08-22T21:33:57.666Z,101115.41
2022-08-22T21:39:28.990Z,101134.41
2022-08-22T21:45:07.912Z,101137.88
2022-08-22T21:50:38.563Z,101128.81
2022-08-22T21:56:15.944Z,101135.50
2022-08-22T22:01:38.328Z,101143.59
2022-08-22T22:07:04.577Z,101151.88
2022-08-22T22:12:26.747Z,101131.75
2022-08-22T22:17:49.454Z,101154.13
2022-08-22T22:23:11.957Z,101147.44
2022-08-22T22:28:38.658Z,101153.06
2022-08-22T22:34:00.875Z,101160.34
2022-08-22T22:39:23.278Z,101163.91
2022-08-22T22:44:47.458Z,101124.75
2022-08-22T22:50:09.877Z,101161.88
2022-08-22T22:55:32.106Z,101153.53
2022-08-22T23:00:54.324Z,101147.44
2022-08-22T23:06:20.638Z,101160.81
2022-08-22T23:11:43.957Z,101125.63
2022-08-22T23:17:06.692Z,101178.84
2022-08-22T23:22:30.762Z,101169.38
2022-08-22T23:27:53.186Z,101185.28
2022-08-22T23:33:16.106Z,101168.41
2022-08-22T23:38:38.389Z,101185.63
2022-08-22T23:44:00.969Z,101152.84
2022-08-22T23:49:27.251Z,101157.19
2022-08-22T23:54:51.558Z,101185.78
